sensor_id;sensor_type;location;lat;lon;timestamp;temperature;humidity
75865;HTU21D;64510;46.704;38.274;2022-10-31T00:02:11;21.47;63.16
75865;HTU21D;64510;46.704;38.274;2022-10-31T00:04:37;21.47;63.16
75865;HTU21D;64510;46.704;38.274;2022-10-31T00:07:04;21.47;63.17
75865;HTU21D;64510;46.704;38.274;2022-10-31T00:09:30;21.46;63.17
75865;HTU21D;64510;46.704;38.274;2022-10-31T00:11:56;21.47;63.18
75865;HTU21D;64510;46.704;38.274;2022-10-31T00:14:22;21.47;63.18
75865;HTU21D;64510;46.704;38.274;2022-10-31T00:16:48;21.46;63.19
75865;HTU21D;64510;46.704;38.274;2022-10-31T00:19:14;21.47;63.21
75865;HTU21D;64510;46.704;38.274;2022-10-31T00:21:41;21.48;63.22
75865;HTU21D;64510;46.704;38.274;2022-10-31T00:24:07;21.47;63.24
75865;HTU21D;64510;46.704;38.274;2022-10-31T00:26:33;21.47;63.24
75865;HTU21D;64510;46.704;38.274;2022-10-31T00:29:00;21.46;63.24
75865;HTU21D;64510;46.704;38.274;2022-10-31T00:31:27;21.47;63.24
75865;HTU21D;64510;46.704;38.274;2022-10-31T00:33:53;21.47;63.24
75865;HTU21D;64510;46.704;38.274;2022-10-31T00:36:20;21.48;63.27
75865;HTU21D;64510;46.704;38.274;2022-10-31T00:38:47;21.46;63.27
75865;HTU21D;64510;46.704;38.274;2022-10-31T00:41:15;21.47;63.28
75865;HTU21D;64510;46.704;38.274;2022-10-31T00:43:42;21.47;63.27
75865;HTU21D;64510;46.704;38.274;2022-10-31T00:46:10;21.48;63.29
75865;HTU21D;64510;46.704;38.274;2022-10-31T00:48:36;21.46;63.31
75865;HTU21D;64510;46.704;38.274;2022-10-31T00:51:02;21.47;63.31
75865;HTU21D;64510;46.704;38.274;2022-10-31T00:53:29;21.47;63.30
75865;HTU21D;64510;46.704;38.274;2022-10-31T00:55:55;21.47;63.32
75865;HTU21D;64510;46.704;38.274;2022-10-31T00:58:22;21.45;63.33
75865;HTU21D;64510;46.704;38.274;2022-10-31T01:00:49;21.47;63.32
75865;HTU21D;64510;46.704;38.274;2022-10-31T01:03:23;21.47;63.33
75865;HTU21D;64510;46.704;38.274;2022-10-31T01:06:04;21.46;63.29
75865;HTU21D;64510;46.704;38.274;2022-10-31T01:08:32;21.46;63.37
75865;HTU21D;64510;46.704;38.274;2022-10-31T01:11:14;21.47;63.31
75865;HTU21D;64510;46.704;38.274;2022-10-31T01:13:41;21.44;63.40
75865;HTU21D;64510;46.704;38.274;2022-10-31T01:16:10;21.45;63.38
75865;HTU21D;64510;46.704;38.274;2022-10-31T01:18:37;21.45;63.43
75865;HTU21D;64510;46.704;38.274;2022-10-31T01:21:09;21.45;63.37
75865;HTU21D;64510;46.704;38.274;2022-10-31T01:23:37;21.46;63.41
75865;HTU21D;64510;46.704;38.274;2022-10-31T01:26:10;21.46;63.40
75865;HTU21D;64510;46.704;38.274;2022-10-31T01:28:50;21.45;63.38
75865;HTU21D;64510;46.704;38.274;2022-10-31T01:31:18;21.45;63.47
75865;HTU21D;64510;46.704;38.274;2022-10-31T01:33:45;21.45;63.47
75865;HTU21D;64510;46.704;38.274;2022-10-31T01:36:19;21.46;63.44
75865;HTU21D;64510;46.704;38.274;2022-10-31T01:38:49;21.45;63.47
75865;HTU21D;64510;46.704;38.274;2022-10-31T01:41:20;21.45;63.45
75865;HTU21D;64510;46.704;38.274;2022-10-31T01:43:51;21.36;63.59
75865;HTU21D;64510;46.704;38.274;2022-10-31T01:48:50;21.38;63.64
75865;HTU21D;64510;46.704;38.274;2022-10-31T01:51:19;21.38;63.63
75865;HTU21D;64510;46.704;38.274;2022-10-31T01:53:47;21.40;63.64
75865;HTU21D;64510;46.704;38.274;2022-10-31T01:56:16;21.40;63.61
75865;HTU21D;64510;46.704;38.274;2022-10-31T01:58:45;21.43;63.63
75865;HTU21D;64510;46.704;38.274;2022-10-31T02:01:12;21.42;63.59
75865;HTU21D;64510;46.704;38.274;2022-10-31T02:03:39;21.44;63.60
75865;HTU21D;64510;46.704;38.274;2022-10-31T02:06:12;21.44;63.56
75865;HTU21D;64510;46.704;38.274;2022-10-31T02:08:40;21.44;63.60
75865;HTU21D;64510;46.704;38.274;2022-10-31T02:11:07;21.44;63.57
75865;HTU21D;64510;46.704;38.274;2022-10-31T02:13:35;21.43;63.58
75865;HTU21D;64510;46.704;38.274;2022-10-31T02:16:05;21.43;63.60
75865;HTU21D;64510;46.704;38.274;2022-10-31T02:18:33;21.44;63.59
75865;HTU21D;64510;46.704;38.274;2022-10-31T02:33:00;21.40;63.61
75865;HTU21D;64510;46.704;38.274;2022-10-31T02:35:37;21.39;63.66
75865;HTU21D;64510;46.704;38.274;2022-10-31T02:38:19;21.40;63.66
75865;HTU21D;64510;46.704;38.274;2022-10-31T02:40:56;21.40;63.68
75865;HTU21D;64510;46.704;38.274;2022-10-31T02:47:11;21.39;63.71
75865;HTU21D;64510;46.704;38.274;2022-10-31T02:50:00;21.38;63.69
75865;HTU21D;64510;46.704;38.274;2022-10-31T02:52:30;21.38;63.78
75865;HTU21D;64510;46.704;38.274;2022-10-31T02:58:11;21.39;63.74
75865;HTU21D;64510;46.704;38.274;2022-10-31T03:00:58;21.39;63.73
75865;HTU21D;64510;46.704;38.274;2022-10-31T03:09:26;21.39;63.79
75865;HTU21D;64510;46.704;38.274;2022-10-31T03:12:04;21.37;63.82
75865;HTU21D;64510;46.704;38.274;2022-10-31T03:14:47;21.39;63.75
75865;HTU21D;64510;46.704;38.274;2022-10-31T03:17:22;21.40;63.76
75865;HTU21D;64510;46.704;38.274;2022-10-31T03:19:53;21.39;63.78
75865;HTU21D;64510;46.704;38.274;2022-10-31T03:22:22;21.40;63.79
75865;HTU21D;64510;46.704;38.274;2022-10-31T03:24:50;21.43;63.78
75865;HTU21D;64510;46.704;38.274;2022-10-31T03:27:23;21.43;63.78
75865;HTU21D;64510;46.704;38.274;2022-10-31T03:29:54;21.42;63.76
75865;HTU21D;64510;46.704;38.274;2022-10-31T03:35:08;21.42;63.76
75865;HTU21D;64510;46.704;38.274;2022-10-31T03:37:37;21.42;63.77
75865;HTU21D;64510;46.704;38.274;2022-10-31T03:40:09;21.43;63.76
75865;HTU21D;64510;46.704;38.274;2022-10-31T03:42:40;21.44;63.73
75865;HTU21D;64510;46.704;38.274;2022-10-31T03:45:11;21.36;63.87
75865;HTU21D;64510;46.704;38.274;2022-10-31T03:47:41;21.37;63.88
75865;HTU21D;64510;46.704;38.274;2022-10-31T03:50:10;21.37;63.89
75865;HTU21D;64510;46.704;38.274;2022-10-31T03:52:53;21.37;63.84
75865;HTU21D;64510;46.704;38.274;2022-10-31T03:58:10;21.38;63.85
75865;HTU21D;64510;46.704;38.274;2022-10-31T04:00:40;21.39;63.85
75865;HTU21D;64510;46.704;38.274;2022-10-31T04:03:14;21.39;63.82
75865;HTU21D;64510;46.704;38.274;2022-10-31T04:05:46;21.40;63.82
75865;HTU21D;64510;46.704;38.274;2022-10-31T04:08:16;21.40;63.81
75865;HTU21D;64510;46.704;38.274;2022-10-31T04:10:43;21.32;63.94
75865;HTU21D;64510;46.704;38.274;2022-10-31T04:13:14;21.37;63.91
75865;HTU21D;64510;46.704;38.274;2022-10-31T04:15:47;21.35;63.96
75865;HTU21D;64510;46.704;38.274;2022-10-31T04:18:16;21.36;63.97
75865;HTU21D;64510;46.704;38.274;2022-10-31T04:20:42;21.36;63.92
75865;HTU21D;64510;46.704;38.274;2022-10-31T04:23:20;21.38;63.86
75865;HTU21D;64510;46.704;38.274;2022-10-31T04:25:47;21.38;63.90
75865;HTU21D;64510;46.704;38.274;2022-10-31T04:28:14;21.39;63.90
75865;HTU21D;64510;46.704;38.274;2022-10-31T04:30:40;21.40;63.89
75865;HTU21D;64510;46.704;38.274;2022-10-31T04:33:06;21.43;63.85
75865;HTU21D;64510;46.704;38.274;2022-10-31T04:35:32;21.43;63.83
75865;HTU21D;64510;46.704;38.274;2022-10-31T04:37:58;21.43;63.82
75865;HTU21D;64510;46.704;38.274;2022-10-31T04:40:25;21.43;63.81
75865;HTU21D;64510;46.704;38.274;2022-10-31T04:42:54;21.43;63.81
75865;HTU21D;64510;46.704;38.274;2022-10-31T04:45:20;21.44;63.81
75865;HTU21D;64510;46.704;38.274;2022-10-31T04:47:47;21.44;63.80
75865;HTU21D;64510;46.704;38.274;2022-10-31T04:50:14;21.44;63.80
75865;HTU21D;64510;46.704;38.274;2022-10-31T04:52:42;21.45;63.77
75865;HTU21D;64510;46.704;38.274;2022-10-31T04:55:10;21.44;63.79
75865;HTU21D;64510;46.704;38.274;2022-10-31T04:57:57;21.44;63.80
75865;HTU21D;64510;46.704;38.274;2022-10-31T05:00:25;21.43;63.81
75865;HTU21D;64510;46.704;38.274;2022-10-31T05:02:56;21.45;63.79
75865;HTU21D;64510;46.704;38.274;2022-10-31T05:05:29;21.44;63.78
75865;HTU21D;64510;46.704;38.274;2022-10-31T05:07:59;21.43;63.79
75865;HTU21D;64510;46.704;38.274;2022-10-31T05:10:29;21.45;63.79
75865;HTU21D;64510;46.704;38.274;2022-10-31T05:13:00;21.44;63.82
75865;HTU21D;64510;46.704;38.274;2022-10-31T05:15:45;21.44;63.84
75865;HTU21D;64510;46.704;38.274;2022-10-31T05:18:29;21.45;63.86
75865;HTU21D;64510;46.704;38.274;2022-10-31T05:20:58;21.44;63.88
75865;HTU21D;64510;46.704;38.274;2022-10-31T05:23:30;21.44;63.86
75865;HTU21D;64510;46.704;38.274;2022-10-31T05:25:56;21.44;63.85
75865;HTU21D;64510;46.704;38.274;2022-10-31T05:28:23;21.45;63.86
75865;HTU21D;64510;46.704;38.274;2022-10-31T05:30:49;21.45;63.85
75865;HTU21D;64510;46.704;38.274;2022-10-31T05:33:15;21.44;63.83
75865;HTU21D;64510;46.704;38.274;2022-10-31T05:35:41;21.46;63.83
75865;HTU21D;64510;46.704;38.274;2022-10-31T05:38:20;21.45;63.82
75865;HTU21D;64510;46.704;38.274;2022-10-31T05:40:47;21.45;63.83
75865;HTU21D;64510;46.704;38.274;2022-10-31T05:43:14;21.46;63.83
75865;HTU21D;64510;46.704;38.274;2022-10-31T05:45:41;21.48;63.83
75865;HTU21D;64510;46.704;38.274;2022-10-31T05:48:18;21.46;63.83
75865;HTU21D;64510;46.704;38.274;2022-10-31T05:51:16;21.45;63.89
75865;HTU21D;64510;46.704;38.274;2022-10-31T05:53:43;21.45;63.89
75865;HTU21D;64510;46.704;38.274;2022-10-31T05:56:12;21.47;63.89
75865;HTU21D;64510;46.704;38.274;2022-10-31T05:58:38;21.46;63.89
75865;HTU21D;64510;46.704;38.274;2022-10-31T06:01:05;21.47;63.89
75865;HTU21D;64510;46.704;38.274;2022-10-31T06:03:32;21.47;63.87
75865;HTU21D;64510;46.704;38.274;2022-10-31T06:06:01;21.47;63.85
75865;HTU21D;64510;46.704;38.274;2022-10-31T06:08:36;21.48;63.88
75865;HTU21D;64510;46.704;38.274;2022-10-31T06:11:11;21.46;63.89
75865;HTU21D;64510;46.704;38.274;2022-10-31T06:13:56;21.47;63.89
75865;HTU21D;64510;46.704;38.274;2022-10-31T06:16:26;21.45;63.93
75865;HTU21D;64510;46.704;38.274;2022-10-31T06:18:55;21.46;63.92
75865;HTU21D;64510;46.704;38.274;2022-10-31T06:21:21;21.46;63.92
75865;HTU21D;64510;46.704;38.274;2022-10-31T06:23:50;21.48;63.91
75865;HTU21D;64510;46.704;38.274;2022-10-31T06:26:42;21.46;63.92
75865;HTU21D;64510;46.704;38.274;2022-10-31T06:29:08;21.47;63.92
75865;HTU21D;64510;46.704;38.274;2022-10-31T06:31:57;21.46;63.95
75865;HTU21D;64510;46.704;38.274;2022-10-31T06:34:23;21.47;63.94
75865;HTU21D;64510;46.704;38.274;2022-10-31T06:36:50;21.47;63.93
75865;HTU21D;64510;46.704;38.274;2022-10-31T06:39:19;21.46;63.95
75865;HTU21D;64510;46.704;38.274;2022-10-31T06:41:47;21.47;63.90
75865;HTU21D;64510;46.704;38.274;2022-10-31T06:44:16;21.47;63.94
75865;HTU21D;64510;46.704;38.274;2022-10-31T06:46:58;21.48;63.95
75865;HTU21D;64510;46.704;38.274;2022-10-31T06:49:45;21.47;63.95
75865;HTU21D;64510;46.704;38.274;2022-10-31T06:52:14;21.47;63.94
75865;HTU21D;64510;46.704;38.274;2022-10-31T06:54:40;21.47;63.94
75865;HTU21D;64510;46.704;38.274;2022-10-31T06:57:07;21.48;63.92
75865;HTU21D;64510;46.704;38.274;2022-10-31T06:59:33;21.49;63.89
75865;HTU21D;64510;46.704;38.274;2022-10-31T07:02:18;21.47;63.89
75865;HTU21D;64510;46.704;38.274;2022-10-31T07:04:45;21.49;63.88
75865;HTU21D;64510;46.704;38.274;2022-10-31T07:07:16;21.50;63.87
75865;HTU21D;64510;46.704;38.274;2022-10-31T07:09:42;21.50;63.84
75865;HTU21D;64510;46.704;38.274;2022-10-31T07:12:10;21.51;63.81
75865;HTU21D;64510;46.704;38.274;2022-10-31T07:14:42;21.50;63.81
75865;HTU21D;64510;46.704;38.274;2022-10-31T07:17:08;21.52;63.79
75865;HTU21D;64510;46.704;38.274;2022-10-31T07:19:38;21.52;63.80
75865;HTU21D;64510;46.704;38.274;2022-10-31T07:22:04;21.53;63.78
75865;HTU21D;64510;46.704;38.274;2022-10-31T07:24:31;21.52;63.79
75865;HTU21D;64510;46.704;38.274;2022-10-31T07:27:16;21.53;63.77
75865;HTU21D;64510;46.704;38.274;2022-10-31T07:29:44;21.53;63.77
75865;HTU21D;64510;46.704;38.274;2022-10-31T07:32:11;21.53;63.76
75865;HTU21D;64510;46.704;38.274;2022-10-31T07:34:43;21.54;63.74
75865;HTU21D;64510;46.704;38.274;2022-10-31T07:37:18;21.55;63.73
75865;HTU21D;64510;46.704;38.274;2022-10-31T07:39:44;21.57;63.71
75865;HTU21D;64510;46.704;38.274;2022-10-31T07:42:11;21.59;63.69
75865;HTU21D;64510;46.704;38.274;2022-10-31T07:44:42;21.59;63.66
75865;HTU21D;64510;46.704;38.274;2022-10-31T07:47:28;21.59;63.65
75865;HTU21D;64510;46.704;38.274;2022-10-31T07:50:07;21.59;63.66
75865;HTU21D;64510;46.704;38.274;2022-10-31T07:53:18;21.58;63.64
75865;HTU21D;64510;46.704;38.274;2022-10-31T07:55:51;21.58;63.69
75865;HTU21D;64510;46.704;38.274;2022-10-31T07:58:18;21.60;63.69
75865;HTU21D;64510;46.704;38.274;2022-10-31T08:00:47;21.61;63.66
75865;HTU21D;64510;46.704;38.274;2022-10-31T08:03:18;21.61;63.66
75865;HTU21D;64510;46.704;38.274;2022-10-31T08:06:04;21.60;63.66
75865;HTU21D;64510;46.704;38.274;2022-10-31T08:08:50;21.60;63.67
75865;HTU21D;64510;46.704;38.274;2022-10-31T08:11:17;21.60;63.67
75865;HTU21D;64510;46.704;38.274;2022-10-31T08:13:43;21.61;63.66
75865;HTU21D;64510;46.704;38.274;2022-10-31T08:16:12;21.61;63.64
75865;HTU21D;64510;46.704;38.274;2022-10-31T08:18:48;21.62;63.64
75865;HTU21D;64510;46.704;38.274;2022-10-31T08:21:15;21.63;63.61
75865;HTU21D;64510;46.704;38.274;2022-10-31T08:23:43;21.64;63.61
75865;HTU21D;64510;46.704;38.274;2022-10-31T08:26:10;21.65;63.59
75865;HTU21D;64510;46.704;38.274;2022-10-31T08:28:36;21.66;63.55
75865;HTU21D;64510;46.704;38.274;2022-10-31T08:31:03;21.67;63.53
75865;HTU21D;64510;46.704;38.274;2022-10-31T08:33:41;21.68;63.53
75865;HTU21D;64510;46.704;38.274;2022-10-31T08:36:36;21.68;63.52
75865;HTU21D;64510;46.704;38.274;2022-10-31T08:39:11;21.69;63.52
75865;HTU21D;64510;46.704;38.274;2022-10-31T08:41:38;21.67;63.52
75865;HTU21D;64510;46.704;38.274;2022-10-31T08:44:09;21.69;63.51
75865;HTU21D;64510;46.704;38.274;2022-10-31T08:46:36;21.70;63.49
75865;HTU21D;64510;46.704;38.274;2022-10-31T08:49:03;21.73;63.47
75865;HTU21D;64510;46.704;38.274;2022-10-31T08:51:29;21.73;63.46
75865;HTU21D;64510;46.704;38.274;2022-10-31T08:53:56;21.74;63.44
75865;HTU21D;64510;46.704;38.274;2022-10-31T08:56:42;21.74;63.44
75865;HTU21D;64510;46.704;38.274;2022-10-31T08:59:22;21.74;63.45
75865;HTU21D;64510;46.704;38.274;2022-10-31T09:02:07;21.74;63.45
75865;HTU21D;64510;46.704;38.274;2022-10-31T09:04:34;21.75;63.44
75865;HTU21D;64510;46.704;38.274;2022-10-31T09:07:01;21.78;63.40
75865;HTU21D;64510;46.704;38.274;2022-10-31T09:09:27;21.78;63.37
75865;HTU21D;64510;46.704;38.274;2022-10-31T09:11:54;21.79;63.34
75865;HTU21D;64510;46.704;38.274;2022-10-31T09:14:23;21.81;63.34
75865;HTU21D;64510;46.704;38.274;2022-10-31T09:17:09;21.82;63.32
75865;HTU21D;64510;46.704;38.274;2022-10-31T09:20:04;21.82;63.34
75865;HTU21D;64510;46.704;38.274;2022-10-31T09:22:33;21.82;63.34
75865;HTU21D;64510;46.704;38.274;2022-10-31T09:24:59;21.83;63.31
75865;HTU21D;64510;46.704;38.274;2022-10-31T09:27:26;21.84;63.27
75865;HTU21D;64510;46.704;38.274;2022-10-31T09:29:55;21.87;63.27
75865;HTU21D;64510;46.704;38.274;2022-10-31T09:32:21;21.88;63.23
75865;HTU21D;64510;46.704;38.274;2022-10-31T09:34:48;21.90;63.21
75865;HTU21D;64510;46.704;38.274;2022-10-31T09:37:18;21.89;63.22
75865;HTU21D;64510;46.704;38.274;2022-10-31T09:39:45;21.89;63.21
75865;HTU21D;64510;46.704;38.274;2022-10-31T09:50:38;21.90;63.21
75865;HTU21D;64510;46.704;38.274;2022-10-31T09:56:07;21.89;63.23
75865;HTU21D;64510;46.704;38.274;2022-10-31T09:58:42;21.89;63.21
75865;HTU21D;64510;46.704;38.274;2022-10-31T10:01:29;21.89;63.19
75865;HTU21D;64510;46.704;38.274;2022-10-31T10:04:02;21.90;63.21
75865;HTU21D;64510;46.704;38.274;2022-10-31T10:06:53;21.90;63.27
75865;HTU21D;64510;46.704;38.274;2022-10-31T10:10:00;21.89;63.29
75865;HTU21D;64510;46.704;38.274;2022-10-31T10:13:01;21.89;63.24
75865;HTU21D;64510;46.704;38.274;2022-10-31T10:16:04;21.87;63.27
75865;HTU21D;64510;46.704;38.274;2022-10-31T10:21:50;21.87;63.29
75865;HTU21D;64510;46.704;38.274;2022-10-31T10:27:30;21.87;63.31
75865;HTU21D;64510;46.704;38.274;2022-10-31T10:30:16;21.85;63.32
75865;HTU21D;64510;46.704;38.274;2022-10-31T10:35:50;21.88;63.34
75865;HTU21D;64510;46.704;38.274;2022-10-31T10:38:38;21.87;63.29
75865;HTU21D;64510;46.704;38.274;2022-10-31T10:41:17;21.87;63.30
75865;HTU21D;64510;46.704;38.274;2022-10-31T10:43:44;21.88;63.34
75865;HTU21D;64510;46.704;38.274;2022-10-31T10:49:17;21.89;63.27
75865;HTU21D;64510;46.704;38.274;2022-10-31T11:00:26;21.88;63.31
75865;HTU21D;64510;46.704;38.274;2022-10-31T11:02:54;21.90;63.29
75865;HTU21D;64510;46.704;38.274;2022-10-31T11:08:06;21.93;63.24
75865;HTU21D;64510;46.704;38.274;2022-10-31T11:10:32;21.94;63.21
75865;HTU21D;64510;46.704;38.274;2022-10-31T11:13:05;21.97;63.15
75865;HTU21D;64510;46.704;38.274;2022-10-31T11:15:36;21.99;63.12
75865;HTU21D;64510;46.704;38.274;2022-10-31T11:18:12;22.02;62.81
75865;HTU21D;64510;46.704;38.274;2022-10-31T11:20:51;21.99;62.79
75865;HTU21D;64510;46.704;38.274;2022-10-31T11:23:19;22.01;62.85
75865;HTU21D;64510;46.704;38.274;2022-10-31T11:26:00;22.02;62.79
75865;HTU21D;64510;46.704;38.274;2022-10-31T11:28:27;22.02;62.80
75865;HTU21D;64510;46.704;38.274;2022-10-31T11:30:59;22.04;62.73
75865;HTU21D;64510;46.704;38.274;2022-10-31T11:36:15;22.07;62.67
75865;HTU21D;64510;46.704;38.274;2022-10-31T11:38:43;22.09;62.79
75865;HTU21D;64510;46.704;38.274;2022-10-31T11:41:27;22.10;62.80
75865;HTU21D;64510;46.704;38.274;2022-10-31T11:43:59;22.12;62.91
75865;HTU21D;64510;46.704;38.274;2022-10-31T11:46:41;22.14;62.89
75865;HTU21D;64510;46.704;38.274;2022-10-31T11:49:28;22.20;62.93
75865;HTU21D;64510;46.704;38.274;2022-10-31T11:51:57;22.21;62.96
75865;HTU21D;64510;46.704;38.274;2022-10-31T11:54:36;22.24;62.94
75865;HTU21D;64510;46.704;38.274;2022-10-31T11:57:04;22.27;62.92
75865;HTU21D;64510;46.704;38.274;2022-10-31T11:59:31;22.31;62.89
75865;HTU21D;64510;46.704;38.274;2022-10-31T12:01:59;22.33;62.92
75865;HTU21D;64510;46.704;38.274;2022-10-31T12:04:46;22.35;62.85
75865;HTU21D;64510;46.704;38.274;2022-10-31T12:07:13;22.37;62.94
75865;HTU21D;64510;46.704;38.274;2022-10-31T12:09:40;22.39;62.95
75865;HTU21D;64510;46.704;38.274;2022-10-31T12:23:35;22.48;62.88
75865;HTU21D;64510;46.704;38.274;2022-10-31T12:36:21;22.52;62.51
75865;HTU21D;64510;46.704;38.274;2022-10-31T12:41:52;22.54;62.45
75865;HTU21D;64510;46.704;38.274;2022-10-31T12:44:56;22.56;62.44
75865;HTU21D;64510;46.704;38.274;2022-10-31T12:47:40;22.56;62.47
75865;HTU21D;64510;46.704;38.274;2022-10-31T12:53:21;22.58;62.49
75865;HTU21D;64510;46.704;38.274;2022-10-31T13:01:45;22.64;62.36
75865;HTU21D;64510;46.704;38.274;2022-10-31T13:04:16;22.66;62.45
75865;HTU21D;64510;46.704;38.274;2022-10-31T13:06:58;22.68;62.34
75865;HTU21D;64510;46.704;38.274;2022-10-31T13:09:35;22.70;62.25
75865;HTU21D;64510;46.704;38.274;2022-10-31T13:12:08;22.72;62.04
75865;HTU21D;64510;46.704;38.274;2022-10-31T13:17:04;22.76;62.12
75865;HTU21D;64510;46.704;38.274;2022-10-31T13:19:39;22.78;62.04
75865;HTU21D;64510;46.704;38.274;2022-10-31T13:30:15;22.83;61.91
75865;HTU21D;64510;46.704;38.274;2022-10-31T13:32:58;22.84;61.86
75865;HTU21D;64510;46.704;38.274;2022-10-31T13:41:05;22.87;61.74
75865;HTU21D;64510;46.704;38.274;2022-10-31T13:48:57;22.90;61.60
75865;HTU21D;64510;46.704;38.274;2022-10-31T13:51:26;22.91;61.52
75865;HTU21D;64510;46.704;38.274;2022-10-31T13:56:21;22.94;61.44
75865;HTU21D;64510;46.704;38.274;2022-10-31T14:01:33;22.96;61.58
75865;HTU21D;64510;46.704;38.274;2022-10-31T14:04:12;22.96;61.45
75865;HTU21D;64510;46.704;38.274;2022-10-31T14:09:22;22.98;61.54
75865;HTU21D;64510;46.704;38.274;2022-10-31T14:11:50;23.00;61.53
75865;HTU21D;64510;46.704;38.274;2022-10-31T14:14:18;23.02;61.54
75865;HTU21D;64510;46.704;38.274;2022-10-31T14:16:45;23.02;61.49
75865;HTU21D;64510;46.704;38.274;2022-10-31T14:19:17;23.05;61.54
75865;HTU21D;64510;46.704;38.274;2022-10-31T14:21:45;23.07;61.47
75865;HTU21D;64510;46.704;38.274;2022-10-31T14:27:00;23.11;61.47
75865;HTU21D;64510;46.704;38.274;2022-10-31T14:29:32;23.13;61.47
75865;HTU21D;64510;46.704;38.274;2022-10-31T14:32:26;23.13;61.37
75865;HTU21D;64510;46.704;38.274;2022-10-31T14:34:56;23.15;61.34
75865;HTU21D;64510;46.704;38.274;2022-10-31T14:40:23;23.15;61.25
75865;HTU21D;64510;46.704;38.274;2022-10-31T14:43:16;23.14;61.32
75865;HTU21D;64510;46.704;38.274;2022-10-31T14:50:57;23.14;61.28
75865;HTU21D;64510;46.704;38.274;2022-10-31T14:54:01;23.13;61.29
75865;HTU21D;64510;46.704;38.274;2022-10-31T14:56:33;23.15;61.29
75865;HTU21D;64510;46.704;38.274;2022-10-31T14:59:03;23.16;61.15
75865;HTU21D;64510;46.704;38.274;2022-10-31T15:01:32;23.14;61.00
75865;HTU21D;64510;46.704;38.274;2022-10-31T15:06:42;23.14;61.04
75865;HTU21D;64510;46.704;38.274;2022-10-31T15:09:30;23.14;61.02
75865;HTU21D;64510;46.704;38.274;2022-10-31T15:12:01;23.15;61.02
75865;HTU21D;64510;46.704;38.274;2022-10-31T15:14:42;23.13;60.96
75865;HTU21D;64510;46.704;38.274;2022-10-31T15:17:10;23.15;61.04
75865;HTU21D;64510;46.704;38.274;2022-10-31T15:19:37;23.12;61.06
75865;HTU21D;64510;46.704;38.274;2022-10-31T15:22:04;23.12;60.91
75865;HTU21D;64510;46.704;38.274;2022-10-31T15:24:36;23.12;60.88
75865;HTU21D;64510;46.704;38.274;2022-10-31T15:27:03;23.09;60.93
75865;HTU21D;64510;46.704;38.274;2022-10-31T15:29:29;23.08;60.93
75865;HTU21D;64510;46.704;38.274;2022-10-31T15:31:58;23.06;60.89
75865;HTU21D;64510;46.704;38.274;2022-10-31T15:34:36;23.03;60.89
75865;HTU21D;64510;46.704;38.274;2022-10-31T15:37:04;23.01;60.90
75865;HTU21D;64510;46.704;38.274;2022-10-31T15:39:31;22.98;60.90
75865;HTU21D;64510;46.704;38.274;2022-10-31T15:41:58;22.97;60.91
75865;HTU21D;64510;46.704;38.274;2022-10-31T15:44:31;22.95;60.91
75865;HTU21D;64510;46.704;38.274;2022-10-31T15:47:05;22.92;60.90
75865;HTU21D;64510;46.704;38.274;2022-10-31T15:49:40;22.91;60.91
75865;HTU21D;64510;46.704;38.274;2022-10-31T15:52:13;22.87;60.93
75865;HTU21D;64510;46.704;38.274;2022-10-31T15:54:46;22.85;60.94
75865;HTU21D;64510;46.704;38.274;2022-10-31T15:57:13;22.83;60.99
75865;HTU21D;64510;46.704;38.274;2022-10-31T15:59:44;22.81;60.96
75865;HTU21D;64510;46.704;38.274;2022-10-31T16:02:13;22.80;60.97
75865;HTU21D;64510;46.704;38.274;2022-10-31T16:04:58;22.77;60.97
75865;HTU21D;64510;46.704;38.274;2022-10-31T16:07:25;22.77;61.00
75865;HTU21D;64510;46.704;38.274;2022-10-31T16:09:55;22.73;60.98
75865;HTU21D;64510;46.704;38.274;2022-10-31T16:12:22;22.71;61.04
75865;HTU21D;64510;46.704;38.274;2022-10-31T16:14:51;22.70;61.02
75865;HTU21D;64510;46.704;38.274;2022-10-31T16:17:20;22.70;61.02
75865;HTU21D;64510;46.704;38.274;2022-10-31T16:22:28;22.67;61.06
75865;HTU21D;64510;46.704;38.274;2022-10-31T16:25:10;22.65;61.08
75865;HTU21D;64510;46.704;38.274;2022-10-31T16:27:38;22.63;61.12
75865;HTU21D;64510;46.704;38.274;2022-10-31T16:30:44;22.58;61.15
75865;HTU21D;64510;46.704;38.274;2022-10-31T16:33:33;22.58;61.17
75865;HTU21D;64510;46.704;38.274;2022-10-31T16:38:56;22.53;61.27
75865;HTU21D;64510;46.704;38.274;2022-10-31T16:41:24;22.53;61.25
75865;HTU21D;64510;46.704;38.274;2022-10-31T16:43:51;22.53;61.25
75865;HTU21D;64510;46.704;38.274;2022-10-31T16:46:22;22.52;61.22
75865;HTU21D;64510;46.704;38.274;2022-10-31T16:48:50;22.51;61.26
75865;HTU21D;64510;46.704;38.274;2022-10-31T16:51:16;22.50;61.26
75865;HTU21D;64510;46.704;38.274;2022-10-31T16:53:42;22.49;61.26
75865;HTU21D;64510;46.704;38.274;2022-10-31T16:56:29;22.48;61.24
75865;HTU21D;64510;46.704;38.274;2022-10-31T16:58:56;22.47;61.29
75865;HTU21D;64510;46.704;38.274;2022-10-31T17:01:22;22.46;61.28
75865;HTU21D;64510;46.704;38.274;2022-10-31T17:03:49;22.46;61.29
75865;HTU21D;64510;46.704;38.274;2022-10-31T17:06:16;22.46;61.30
75865;HTU21D;64510;46.704;38.274;2022-10-31T17:08:42;22.43;61.30
75865;HTU21D;64510;46.704;38.274;2022-10-31T17:11:15;22.43;61.28
75865;HTU21D;64510;46.704;38.274;2022-10-31T17:13:42;22.43;61.34
75865;HTU21D;64510;46.704;38.274;2022-10-31T17:16:09;22.41;61.34
75865;HTU21D;64510;46.704;38.274;2022-10-31T17:18:37;22.41;61.35
75865;HTU21D;64510;46.704;38.274;2022-10-31T17:21:04;22.41;61.35
75865;HTU21D;64510;46.704;38.274;2022-10-31T17:23:33;22.39;61.39
75865;HTU21D;64510;46.704;38.274;2022-10-31T17:25:59;22.39;61.38
75865;HTU21D;64510;46.704;38.274;2022-10-31T17:28:25;22.38;61.40
75865;HTU21D;64510;46.704;38.274;2022-10-31T17:30:53;22.38;61.39
75865;HTU21D;64510;46.704;38.274;2022-10-31T17:33:20;22.38;61.41
75865;HTU21D;64510;46.704;38.274;2022-10-31T17:35:46;22.37;61.41
75865;HTU21D;64510;46.704;38.274;2022-10-31T17:38:16;22.36;61.41
75865;HTU21D;64510;46.704;38.274;2022-10-31T17:40:42;22.36;61.43
75865;HTU21D;64510;46.704;38.274;2022-10-31T17:43:09;22.35;61.43
75865;HTU21D;64510;46.704;38.274;2022-10-31T17:45:39;22.26;61.62
75865;HTU21D;64510;46.704;38.274;2022-10-31T17:48:09;22.27;61.60
75865;HTU21D;64510;46.704;38.274;2022-10-31T17:50:36;22.26;61.66
75865;HTU21D;64510;46.704;38.274;2022-10-31T17:53:02;22.26;61.64
75865;HTU21D;64510;46.704;38.274;2022-10-31T17:55:30;22.27;61.61
75865;HTU21D;64510;46.704;38.274;2022-10-31T17:57:56;22.27;61.61
75865;HTU21D;64510;46.704;38.274;2022-10-31T18:00:22;22.27;61.60
75865;HTU21D;64510;46.704;38.274;2022-10-31T18:02:50;22.26;61.57
75865;HTU21D;64510;46.704;38.274;2022-10-31T18:05:16;22.26;61.57